Rm Thomas — FNMP — position and weather

sailwx.info

Track history (hours):
 
Tides and Currents Weather Stations Pressure Air Temp Water Temp Dewpoint Dewpoint Depression Visibility Wind Speed Wind Dir Waves Ship Positions

Rm Thomas

Last reported at 2015-Aug-22 03:33 UTC. Time now 2015-Sep-04 12:25 UTC.
Position N 44°53' W 000°32'.
Warning: this ship's position is 13 days out of date.

Length 25 m; draft 4 m.

Type: Tug. MMSI: 228278700.

Date/timePositionNaut miles runAvg speedWind from/ knotsBaromVisibWave heightAir tempDewpointWater temp
2015-Aug-22 03:33N 44°53' W 000°32'12 0.3
2015-Aug-20 09:24N 45°04' W 000°39'1010.5
2015-Aug-20 08:28N 45°13' W 000°44'1 0.5
2015-Aug-20 07:09N 45°14' W 000°45'0 0.1
2015-Aug-20 04:23N 45°13' W 000°45'0 0.0
2015-Aug-20 03:33N 45°13' W 000°45'0 0.0
2015-Aug-20 02:20N 45°13' W 000°45'0 0.0
2015-Aug-20 01:33N 45°13' W 000°45'0 0.0
2015-Aug-20 00:33N 45°13' W 000°45'0 0.0
2015-Aug-19 23:29N 45°13' W 000°45'0 0.0
2015-Aug-19 22:10N 45°13' W 000°45'7 8.1
2015-Aug-19 21:21N 45°07' W 000°42'8 9.7
2015-Aug-19 20:33N 45°01' W 000°35'8 0.2
2015-Aug-17 23:11N 44°53' W 000°32'0 0.0
2015-Aug-17 22:14N 44°53' W 000°32'0 0.0
2015-Aug-17 21:31N 44°53' W 000°32'5 0.4
2015-Aug-17 07:33N 44°59' W 000°32'2 2.0
2015-Aug-17 06:33N 45°00' W 000°34'2 2.2
2015-Aug-17 05:33N 44°59' W 000°32'5 5.1
2015-Aug-17 04:33N 44°53' W 000°32'  
Track history (hours):
 
Tides and Currents Weather Stations Pressure Air Temp Water Temp Dewpoint Dewpoint Depression Visibility Wind Speed Wind Dir Waves Ship Positions

Rm Thomas

Last reported at 2015-Aug-22 03:33 UTC. Time now 2015-Sep-04 12:25 UTC.
Position N 44°53' W 000°32'.
Warning: this ship's position is 13 days out of date.

Length 25 m; draft 4 m.

Type: Tug. MMSI: 228278700.

Date/timePositionNaut miles runAvg speedWind from/ knotsBaromVisibWave heightAir tempDewpointWater temp
2015-Aug-22 03:33N 44°53' W 000°32'12 0.3
2015-Aug-20 09:24N 45°04' W 000°39'1010.5
2015-Aug-20 08:28N 45°13' W 000°44'1 0.5
2015-Aug-20 07:09N 45°14' W 000°45'0 0.1
2015-Aug-20 04:23N 45°13' W 000°45'0 0.0
2015-Aug-20 03:33N 45°13' W 000°45'0 0.0
2015-Aug-20 02:20N 45°13' W 000°45'0 0.0
2015-Aug-20 01:33N 45°13' W 000°45'0 0.0
2015-Aug-20 00:33N 45°13' W 000°45'0 0.0
2015-Aug-19 23:29N 45°13' W 000°45'0 0.0
2015-Aug-19 22:10N 45°13' W 000°45'7 8.1
2015-Aug-19 21:21N 45°07' W 000°42'8 9.7
2015-Aug-19 20:33N 45°01' W 000°35'8 0.2
2015-Aug-17 23:11N 44°53' W 000°32'0 0.0
2015-Aug-17 22:14N 44°53' W 000°32'0 0.0
2015-Aug-17 21:31N 44°53' W 000°32'5 0.4
2015-Aug-17 07:33N 44°59' W 000°32'2 2.0
2015-Aug-17 06:33N 45°00' W 000°34'2 2.2
2015-Aug-17 05:33N 44°59' W 000°32'5 5.1
2015-Aug-17 04:33N 44°53' W 000°32'  

Dump ship's entire track history